İstanbul Atatürk Airport

LTBA · 伊斯坦布尔, 土耳其

罗盘
风向 的 风向 310° 阿塔蒂尔克国际机场 5/23
风: 3 kt, 1 beaufort

1 kt

3 kt
改变
0 ft 5.000 10.000 15.000 20.000
Cloud Cloud Cloud Cloud Cloud Cloud
BKN 900
Cloud Cloud Cloud Cloud Cloud Cloud
BKN 12.000
METAR LTBA 020520Z 31003KT 6000 BKN009 BKN120 09/07 Q1012 RMK RWY23 VRB02KT

METAR 阿塔蒂尔克国际机场 - LTBA/ISL

阿塔蒂尔克国际机场是,土耳其中的中型机场。 该机场位于纬度40,97205和经度28,82380。 该机场有一条跑道: 5/23. 本场的ICAO机场代码为LTBA。 该机场的IATA代码为ISL。 机场在Istanbul FIR中。

该航空气象观测是针对阿塔蒂尔克国际机场在2024年3月2日 08:20, 当地时间进行的。

机场观察

风向为310°,速度为3 kt。

可见度为6 km。

有碎云在900 ft的高度 和 碎云在12.000 ft的高度。 破损或更高的上限为900 ft。

温度为9 °C,阵风为7 °C。 露点为7 °C,相对湿度为87%。 海平面上的气压为1012 hPa (QNH)。

白天

今天,太阳从07:36升起,在18:57降落。 这适用于阿塔蒂尔克国际机场,世界夏令时可能有所不同。 当地时间与世界标准时间之间的时差为+3 小时。 当前,没有夏令时有效。

公司介绍

我们没有关于这个机场的公司信息。

体会

到Vliegles.nl去找飞行课程,跳伞和其他飞行体验。 浏览页面,了解阿塔蒂尔克国际机场附近所有可用的活动。 你也可以使用搜索功能来寻找你所在地附近的特定飞行课程、跳伞或其他飞行体验。

跑道

Id 标题 侧风 逆风 侧风 %
5/23 059°-239° 3 kt 95 %

逆风成分最大的方向会被突出显示,并用于横风计算。 这并不一定意味着这个方向在使用。

乌云

900 ft BKN 碎云
12.000 ft BKN 碎云

温度 & 天气

温度 9 °C
露点 7 °C
相对湿度 87%
风寒 7 °C
Kp-index 1 (0-9)

评论

VRB02KT未知降水 开始于 02, 结束于
RWY23

白天

日出
07:36
中午
13:16
日落
18:57 (9:57)

小工具

你想在你的网站上有一个关于阿塔蒂尔克国际机场的当前航空天气(METAR)的小部件吗?

显示HTML代码
?>